createdAt,value
2018-07-04T00:02:33.651Z,98695.00
2018-07-04T00:05:19.595Z,98695.00
2018-07-04T00:08:05.193Z,98699.00
2018-07-04T00:10:50.699Z,98698.00
2018-07-04T00:13:36.996Z,98711.00
2018-07-04T00:16:22.969Z,98710.00
2018-07-04T00:19:02.543Z,98711.00
2018-07-04T00:21:48.188Z,98709.00
2018-07-04T00:24:33.886Z,98710.00
2018-07-04T00:27:19.351Z,98706.00
2018-07-04T00:30:05.049Z,98700.00
2018-07-04T00:32:50.577Z,98701.00
2018-07-04T00:35:36.153Z,98697.00
2018-07-04T00:38:21.911Z,98693.00
2018-07-04T00:41:07.435Z,98692.00
2018-07-04T00:43:53.135Z,98692.00
2018-07-04T00:46:38.793Z,98692.00
2018-07-04T00:49:24.230Z,98692.00
2018-07-04T00:52:09.811Z,98688.00
2018-07-04T00:54:49.583Z,98684.00
2018-07-04T00:57:36.801Z,98678.00
2018-07-04T01:00:22.338Z,98678.00
2018-07-04T01:03:07.738Z,98676.00
2018-07-04T01:05:53.236Z,98670.00
2018-07-04T01:08:39.618Z,98679.00
2018-07-04T01:11:25.303Z,98677.00
2018-07-04T01:14:10.691Z,98677.00
2018-07-04T01:16:56.336Z,98673.00
2018-07-04T01:19:42.693Z,98682.00
2018-07-04T01:22:28.277Z,98674.00
2018-07-04T01:25:13.748Z,98677.00
2018-07-04T01:27:59.263Z,98674.00
2018-07-04T01:30:44.944Z,98675.00
2018-07-04T01:33:30.285Z,98675.00
2018-07-04T01:36:15.830Z,98680.00
2018-07-04T01:39:01.312Z,98679.00
2018-07-04T01:41:48.380Z,98673.00
2018-07-04T01:44:34.023Z,98681.00
2018-07-04T01:47:19.493Z,98676.00
2018-07-04T01:50:05.100Z,98676.00
2018-07-04T01:52:50.578Z,98669.00
2018-07-04T01:55:36.155Z,98668.00
2018-07-04T01:58:21.818Z,98665.00
2018-07-04T02:01:07.363Z,98666.00
2018-07-04T02:03:54.020Z,98666.00
2018-07-04T02:06:33.694Z,98657.00
2018-07-04T02:09:19.290Z,98646.00
2018-07-04T02:12:04.926Z,98644.00
2018-07-04T02:14:50.751Z,98643.00
2018-07-04T02:17:36.238Z,98662.00
2018-07-04T02:20:21.710Z,98666.00
2018-07-04T02:23:07.475Z,98664.00
2018-07-04T02:25:52.972Z,98671.00
2018-07-04T02:28:38.495Z,98678.00
2018-07-04T02:31:23.920Z,98680.00
2018-07-04T02:34:09.365Z,98683.00
2018-07-04T02:36:49.920Z,98679.00
2018-07-04T02:39:29.623Z,98684.00
2018-07-04T02:42:14.975Z,98684.00
2018-07-04T02:45:00.540Z,98687.00
2018-07-04T02:47:48.497Z,98682.00
2018-07-04T02:50:33.840Z,98680.00
2018-07-04T02:53:19.502Z,98679.00
2018-07-04T02:56:05.053Z,98692.00
2018-07-04T02:58:50.776Z,98698.00
2018-07-04T03:01:36.300Z,98702.00
2018-07-04T03:04:21.876Z,98706.00
2018-07-04T03:07:07.373Z,98703.00
2018-07-04T03:09:52.908Z,98706.00
2018-07-04T03:12:32.553Z,98715.00
2018-07-04T03:15:18.075Z,98718.00
2018-07-04T03:18:03.498Z,98716.00
2018-07-04T03:20:49.235Z,98721.00
2018-07-04T03:23:34.651Z,98723.00
2018-07-04T03:26:20.175Z,98729.00
2018-07-04T03:29:05.927Z,98731.00
2018-07-04T03:31:53.687Z,98726.00
2018-07-04T03:34:39.217Z,98729.00
2018-07-04T03:37:24.648Z,98723.00
2018-07-04T03:40:10.103Z,98723.00
2018-07-04T03:42:56.323Z,98726.00
2018-07-04T03:45:42.030Z,98720.00
2018-07-04T03:48:27.573Z,98720.00
2018-07-04T03:51:13.148Z,98727.00
2018-07-04T03:53:58.855Z,98725.00
2018-07-04T03:56:44.326Z,98718.00
2018-07-04T03:59:29.905Z,98705.00
2018-07-04T04:02:15.314Z,98701.00
2018-07-04T04:05:01.030Z,98707.00
2018-07-04T04:07:46.626Z,98710.00
2018-07-04T04:10:32.096Z,98706.00
2018-07-04T04:13:17.541Z,98703.00
2018-07-04T04:16:03.219Z,98700.00
2018-07-04T04:18:48.898Z,98690.00
2018-07-04T04:21:34.329Z,98694.00
2018-07-04T04:24:19.886Z,98691.00
2018-07-04T04:27:06.017Z,98679.00
2018-07-04T04:29:51.556Z,98679.00
2018-07-04T04:32:37.056Z,98681.00
2018-07-04T04:35:22.671Z,98686.00
2018-07-04T04:38:08.186Z,98684.00
2018-07-04T04:40:53.753Z,98680.00
2018-07-04T04:43:39.319Z,98683.00
2018-07-04T04:46:24.876Z,98682.00
2018-07-04T04:49:10.482Z,98687.00
2018-07-04T04:51:55.803Z,98690.00
2018-07-04T04:54:41.322Z,98684.00
2018-07-04T04:57:26.845Z,98689.00
2018-07-04T05:00:12.475Z,98690.00
2018-07-04T05:02:58.071Z,98694.00
2018-07-04T05:05:43.586Z,98691.00
2018-07-04T05:08:29.263Z,98692.00
2018-07-04T05:11:14.899Z,98690.00
2018-07-04T05:14:00.527Z,98686.00
2018-07-04T05:16:45.963Z,98684.00
2018-07-04T05:19:31.498Z,98684.00
2018-07-04T05:22:17.256Z,98682.00
2018-07-04T05:25:02.796Z,98690.00
2018-07-04T05:27:48.329Z,98696.00
2018-07-04T05:30:33.805Z,98700.00
2018-07-04T05:33:19.371Z,98696.00
2018-07-04T05:36:04.716Z,98693.00
2018-07-04T05:38:50.275Z,98696.00
2018-07-04T05:41:35.991Z,98700.00
2018-07-04T05:44:15.813Z,98704.00
2018-07-04T05:47:01.306Z,98706.00
2018-07-04T05:49:46.881Z,98706.00
2018-07-04T05:52:32.573Z,98712.00
2018-07-04T05:55:19.453Z,98712.00
2018-07-04T05:58:04.959Z,98717.00
2018-07-04T06:00:50.405Z,98715.00
2018-07-04T06:03:36.443Z,98719.00
2018-07-04T06:06:16.825Z,98713.00
2018-07-04T06:09:02.521Z,98713.00
2018-07-04T06:11:47.924Z,98713.00
2018-07-04T06:14:33.467Z,98714.00
2018-07-04T06:17:19.099Z,98717.00
2018-07-04T06:20:04.528Z,98717.00
2018-07-04T06:22:50.056Z,98715.00
2018-07-04T06:25:35.443Z,98714.00
2018-07-04T06:28:23.309Z,98709.00
2018-07-04T06:31:08.821Z,98703.00
2018-07-04T06:33:54.351Z,98703.00
2018-07-04T06:36:39.703Z,98705.00
2018-07-04T06:39:06.583Z,98703.00
2018-07-04T06:41:33.466Z,98708.00
2018-07-04T06:44:00.348Z,98719.00
2018-07-04T06:46:27.218Z,98714.00
2018-07-04T06:48:54.168Z,98717.00
2018-07-04T06:51:20.979Z,98723.00
2018-07-04T06:53:47.778Z,98730.00
2018-07-04T06:56:14.566Z,98734.00
2018-07-04T06:58:41.399Z,98742.00
2018-07-04T07:01:08.213Z,98755.00
2018-07-04T07:03:53.764Z,98756.00
2018-07-04T07:06:39.192Z,98759.00
2018-07-04T07:09:24.929Z,98757.00
2018-07-04T07:12:10.511Z,98748.00
2018-07-04T07:14:56.083Z,98744.00
2018-07-04T07:17:41.706Z,98755.00
2018-07-04T07:20:27.299Z,98757.00
2018-07-04T07:23:12.859Z,98754.00
2018-07-04T07:25:58.401Z,98756.00
2018-07-04T07:28:44.489Z,98754.00
2018-07-04T07:31:30.093Z,98757.00
2018-07-04T07:34:15.672Z,98751.00
2018-07-04T07:37:01.013Z,98751.00
2018-07-04T07:39:46.598Z,98743.00
2018-07-04T07:42:32.157Z,98743.00
2018-07-04T07:45:17.794Z,98739.00
2018-07-04T07:48:03.173Z,98738.00
2018-07-04T07:50:48.819Z,98729.00
2018-07-04T07:53:36.519Z,98728.00
2018-07-04T07:56:22.048Z,98730.00
2018-07-04T07:59:07.736Z,98722.00
2018-07-04T08:01:53.198Z,98713.00
2018-07-04T08:04:43.764Z,98708.00
2018-07-04T08:07:29.274Z,98708.00
2018-07-04T08:10:14.828Z,98706.00
2018-07-04T08:13:00.258Z,98702.00
2018-07-04T08:15:45.783Z,98713.00
2018-07-04T08:18:31.103Z,98714.00
2018-07-04T08:21:16.591Z,98706.00
2018-07-04T08:24:02.174Z,98714.00
2018-07-04T08:26:47.730Z,98704.00
2018-07-04T08:29:33.233Z,98702.00
2018-07-04T08:32:18.804Z,98696.00
2018-07-04T08:35:04.214Z,98691.00
2018-07-04T08:37:49.766Z,98693.00
2018-07-04T08:40:35.216Z,98688.00
2018-07-04T08:43:20.843Z,98689.00
2018-07-04T08:46:06.321Z,98683.00
2018-07-04T08:48:51.949Z,98677.00
2018-07-04T08:51:37.418Z,98675.00
2018-07-04T08:54:22.883Z,98677.00
2018-07-04T08:57:08.346Z,98671.00
2018-07-04T08:59:54.765Z,98672.00
2018-07-04T09:02:40.216Z,98670.00
2018-07-04T09:05:25.748Z,98669.00
2018-07-04T09:08:11.192Z,98670.00
2018-07-04T09:10:56.947Z,98666.00
2018-07-04T09:13:42.667Z,98651.00
2018-07-04T09:16:28.112Z,98652.00
2018-07-04T09:19:13.686Z,98656.00
2018-07-04T09:22:00.058Z,98655.00
2018-07-04T09:24:45.589Z,98658.00
2018-07-04T09:27:31.054Z,98657.00
2018-07-04T09:30:16.648Z,98654.00
2018-07-04T09:33:03.211Z,98658.00
2018-07-04T09:35:42.967Z,98657.00
2018-07-04T09:38:22.515Z,98663.00
2018-07-04T09:41:08.083Z,98658.00
2018-07-04T09:43:56.652Z,98670.00
2018-07-04T09:46:42.206Z,98669.00
2018-07-04T09:49:27.803Z,98673.00
2018-07-04T09:52:13.153Z,98677.00
2018-07-04T09:54:58.668Z,98665.00
2018-07-04T09:57:44.124Z,98677.00
2018-07-04T10:00:30.083Z,98671.00
2018-07-04T10:03:15.441Z,98670.00
2018-07-04T10:06:01.137Z,98666.00
2018-07-04T10:08:46.633Z,98660.00
2018-07-04T10:11:32.067Z,98661.00
2018-07-04T10:14:18.520Z,98661.00
2018-07-04T10:17:04.140Z,98668.00
2018-07-04T10:19:49.558Z,98662.00
2018-07-04T10:22:35.093Z,98675.00
2018-07-04T10:25:14.884Z,98673.00
2018-07-04T10:28:01.058Z,98670.00
2018-07-04T10:30:46.579Z,98666.00
2018-07-04T10:33:32.147Z,98665.00
2018-07-04T10:36:18.478Z,98664.00
2018-07-04T10:39:04.661Z,98667.00
2018-07-04T10:41:50.239Z,98668.00
2018-07-04T10:44:36.222Z,98669.00
2018-07-04T10:47:21.751Z,98665.00
2018-07-04T10:50:07.191Z,98662.00
2018-07-04T10:52:52.784Z,98672.00
2018-07-04T10:55:38.479Z,98671.00
2018-07-04T10:58:24.828Z,98670.00
2018-07-04T11:01:10.412Z,98665.00
2018-07-04T11:03:55.939Z,98670.00
2018-07-04T11:06:41.939Z,98671.00
2018-07-04T11:09:22.619Z,98659.00
2018-07-04T11:12:08.320Z,98660.00
2018-07-04T11:14:53.669Z,98651.00
2018-07-04T11:17:39.039Z,98650.00
2018-07-04T11:20:24.496Z,98647.00
2018-07-04T11:23:10.076Z,98646.00
2018-07-04T11:25:55.606Z,98647.00
2018-07-04T11:28:41.043Z,98647.00
2018-07-04T11:31:27.424Z,98641.00
2018-07-04T11:34:13.916Z,98638.00
2018-07-04T11:36:59.313Z,98642.00
2018-07-04T11:39:44.864Z,98641.00
2018-07-04T11:42:31.425Z,98636.00
2018-07-04T11:45:16.809Z,98640.00
2018-07-04T11:47:43.709Z,98637.00
2018-07-04T11:50:10.553Z,98637.00
2018-07-04T11:52:39.791Z,98633.00
2018-07-04T11:55:06.836Z,98639.00
2018-07-04T11:57:40.202Z,98634.00
2018-07-04T12:00:07.683Z,98639.00
2018-07-04T12:02:34.510Z,98637.00
2018-07-04T12:05:20.128Z,98633.00
2018-07-04T12:07:47.006Z,98640.00
2018-07-04T12:10:13.875Z,98643.00
2018-07-04T12:12:41.659Z,98633.00
2018-07-04T12:15:08.486Z,98630.00
2018-07-04T12:17:35.595Z,98631.00
2018-07-04T12:20:02.388Z,98634.00
2018-07-04T12:22:29.406Z,98631.00
2018-07-04T12:24:56.359Z,98630.00
2018-07-04T12:27:23.223Z,98629.00
2018-07-04T12:29:50.131Z,98626.00
2018-07-04T12:32:17.003Z,98620.00
2018-07-04T12:34:43.810Z,98620.00
2018-07-04T12:37:10.628Z,98617.00
2018-07-04T12:39:37.528Z,98625.00
2018-07-04T12:42:04.873Z,98616.00
2018-07-04T12:44:31.701Z,98617.00
2018-07-04T12:46:58.597Z,98616.00
2018-07-04T12:49:27.415Z,98612.00
2018-07-04T12:51:54.638Z,98610.00
2018-07-04T12:54:27.133Z,98612.00
2018-07-04T12:57:13.700Z,98605.00
2018-07-04T12:59:59.145Z,98605.00
2018-07-04T13:02:44.851Z,98601.00
2018-07-04T13:05:30.332Z,98600.00
2018-07-04T13:08:16.591Z,98592.00
2018-07-04T13:11:02.425Z,98592.00
2018-07-04T13:13:48.052Z,98593.00
2018-07-04T13:16:33.714Z,98595.00
2018-07-04T13:19:19.305Z,98594.00
2018-07-04T13:22:04.760Z,98592.00
2018-07-04T13:24:50.379Z,98598.00
2018-07-04T13:27:35.910Z,98588.00
2018-07-04T13:30:21.761Z,98582.00
2018-07-04T13:33:07.509Z,98584.00
2018-07-04T13:35:53.157Z,98583.00
2018-07-04T13:38:38.647Z,98581.00
2018-07-04T13:41:25.237Z,98579.00
2018-07-04T13:44:10.711Z,98579.00
2018-07-04T13:46:56.291Z,98575.00
2018-07-04T13:49:41.841Z,98576.00
2018-07-04T13:52:27.459Z,98576.00
2018-07-04T13:55:13.240Z,98574.00
2018-07-04T13:57:58.744Z,98575.00
2018-07-04T14:00:44.333Z,98574.00
2018-07-04T14:03:25.068Z,98564.00
2018-07-04T14:06:10.549Z,98568.00
2018-07-04T14:08:56.154Z,98563.00
2018-07-04T14:11:41.644Z,98565.00
2018-07-04T14:14:28.046Z,98566.00
2018-07-04T14:17:13.517Z,98559.00
2018-07-04T14:19:59.791Z,98555.00
2018-07-04T14:22:45.631Z,98560.00
2018-07-04T14:25:31.237Z,98558.00
2018-07-04T14:28:16.866Z,98555.00
2018-07-04T14:31:02.319Z,98554.00
2018-07-04T14:33:47.852Z,98552.00
2018-07-04T14:36:33.554Z,98550.00
2018-07-04T14:39:19.256Z,98547.00
2018-07-04T14:42:04.846Z,98542.00
2018-07-04T14:44:50.437Z,98549.00
2018-07-04T14:47:36.014Z,98548.00
2018-07-04T14:50:22.123Z,98546.00
2018-07-04T14:53:07.583Z,98545.00
2018-07-04T14:55:53.038Z,98543.00
2018-07-04T14:58:38.676Z,98534.00
2018-07-04T15:01:24.238Z,98533.00
2018-07-04T15:04:09.816Z,98531.00
2018-07-04T15:06:55.326Z,98534.00
2018-07-04T15:09:40.926Z,98535.00
2018-07-04T15:12:26.301Z,98539.00
2018-07-04T15:15:14.059Z,98542.00
2018-07-04T15:17:59.668Z,98537.00
2018-07-04T15:20:45.163Z,98539.00
2018-07-04T15:23:30.776Z,98536.00
2018-07-04T15:26:16.423Z,98528.00
2018-07-04T15:29:01.849Z,98531.00
2018-07-04T15:31:47.423Z,98534.00
2018-07-04T15:34:32.923Z,98537.00
2018-07-04T15:37:18.420Z,98538.00
2018-07-04T15:40:03.849Z,98537.00
2018-07-04T15:42:49.513Z,98534.00
2018-07-04T15:45:35.011Z,98529.00
2018-07-04T15:48:20.568Z,98535.00
2018-07-04T15:51:06.194Z,98534.00
2018-07-04T15:53:52.547Z,98523.00
2018-07-04T15:56:38.273Z,98526.00
2018-07-04T15:59:24.657Z,98525.00
2018-07-04T16:02:10.239Z,98524.00
2018-07-04T16:04:55.772Z,98520.00
2018-07-04T16:07:41.371Z,98524.00
2018-07-04T16:10:26.853Z,98525.00
2018-07-04T16:13:12.354Z,98519.00
2018-07-04T16:15:57.897Z,98530.00
2018-07-04T16:18:43.417Z,98522.00
2018-07-04T16:21:23.049Z,98527.00
2018-07-04T16:24:08.588Z,98526.00
2018-07-04T16:26:54.144Z,98522.00
2018-07-04T16:29:40.206Z,98520.00
2018-07-04T16:32:25.682Z,98523.00
2018-07-04T16:35:11.086Z,98530.00
2018-07-04T16:37:56.695Z,98533.00
2018-07-04T16:40:42.166Z,98534.00
2018-07-04T16:43:28.592Z,98537.00
2018-07-04T16:46:14.129Z,98536.00
2018-07-04T16:48:59.745Z,98534.00
2018-07-04T16:51:45.227Z,98541.00
2018-07-04T16:54:30.701Z,98537.00
2018-07-04T16:57:16.140Z,98541.00
2018-07-04T17:00:04.814Z,98541.00
2018-07-04T17:02:50.679Z,98537.00
2018-07-04T17:05:36.188Z,98537.00
2018-07-04T17:08:21.809Z,98535.00
2018-07-04T17:11:07.560Z,98541.00
2018-07-04T17:13:53.059Z,98536.00
2018-07-04T17:16:38.708Z,98543.00
2018-07-04T17:19:24.114Z,98545.00
2018-07-04T17:22:09.710Z,98543.00
2018-07-04T17:24:55.981Z,98545.00
2018-07-04T17:27:42.249Z,98552.00
2018-07-04T17:30:27.824Z,98544.00
2018-07-04T17:33:13.681Z,98543.00
2018-07-04T17:55:48.379Z,98558.00
2018-07-04T17:58:34.264Z,98566.00
2018-07-04T18:01:19.727Z,98569.00
2018-07-04T18:04:05.539Z,98570.00
2018-07-04T18:06:51.203Z,98568.00
2018-07-04T18:09:36.726Z,98571.00
2018-07-04T18:12:22.219Z,98577.00
2018-07-04T18:15:02.775Z,98579.00
2018-07-04T18:17:48.348Z,98582.00
2018-07-04T18:20:33.897Z,98574.00
2018-07-04T18:23:19.335Z,98576.00
2018-07-04T18:26:05.651Z,98569.00
2018-07-04T18:28:51.287Z,98570.00
2018-07-04T18:31:36.644Z,98570.00
2018-07-04T18:34:22.178Z,98568.00
2018-07-04T18:37:07.769Z,98571.00
2018-07-04T18:39:53.378Z,98566.00
2018-07-04T18:42:39.919Z,98567.00
2018-07-04T18:45:25.319Z,98570.00
2018-07-04T18:48:10.913Z,98572.00
2018-07-04T18:50:57.246Z,98581.00
2018-07-04T18:53:42.657Z,98583.00
2018-07-04T18:56:28.182Z,98586.00
2018-07-04T18:59:13.802Z,98585.00
2018-07-04T19:01:59.497Z,98585.00
2018-07-04T19:04:44.966Z,98582.00
2018-07-04T19:07:30.711Z,98583.00
2018-07-04T19:10:16.351Z,98577.00
2018-07-04T19:13:01.857Z,98576.00
2018-07-04T19:15:50.361Z,98566.00
2018-07-04T19:18:35.809Z,98570.00
2018-07-04T19:21:22.068Z,98577.00
2018-07-04T19:24:07.762Z,98585.00
2018-07-04T19:26:53.357Z,98589.00
2018-07-04T19:29:39.609Z,98591.00
2018-07-04T19:32:25.201Z,98596.00
2018-07-04T19:35:11.621Z,98597.00
2018-07-04T19:37:57.222Z,98595.00
2018-07-04T19:40:42.853Z,98595.00
2018-07-04T19:43:28.537Z,98597.00
2018-07-04T19:46:14.341Z,98600.00
2018-07-04T19:48:59.818Z,98605.00
2018-07-04T19:51:45.462Z,98605.00
2018-07-04T19:54:30.963Z,98596.00
2018-07-04T19:57:17.452Z,98595.00
2018-07-04T20:00:03.436Z,98597.00
2018-07-04T20:02:49.094Z,98599.00
2018-07-04T20:05:34.659Z,98599.00
2018-07-04T20:08:20.309Z,98596.00
2018-07-04T20:11:05.939Z,98592.00
2018-07-04T20:13:52.318Z,98588.00
2018-07-04T20:16:37.651Z,98591.00
2018-07-04T20:19:24.010Z,98596.00
2018-07-04T20:22:09.501Z,98600.00
2018-07-04T20:24:55.768Z,98598.00
2018-07-04T20:27:41.267Z,98597.00
2018-07-04T20:30:27.553Z,98595.00
2018-07-04T20:33:13.600Z,98588.00
2018-07-04T20:35:59.126Z,98585.00
2018-07-04T20:38:44.599Z,98585.00
2018-07-04T20:41:30.228Z,98583.00
2018-07-04T20:44:15.952Z,98587.00
2018-07-04T20:47:01.544Z,98585.00
2018-07-04T20:49:41.201Z,98589.00
2018-07-04T20:52:26.696Z,98592.00
2018-07-04T20:55:12.294Z,98603.00
2018-07-04T20:57:57.911Z,98608.00
2018-07-04T21:00:43.975Z,98604.00
2018-07-04T21:03:29.485Z,98608.00
2018-07-04T21:06:14.969Z,98607.00
2018-07-04T21:09:00.944Z,98603.00
2018-07-04T21:11:46.540Z,98605.00
2018-07-04T21:14:31.910Z,98609.00
2018-07-04T21:17:18.291Z,98606.00
2018-07-04T21:20:03.836Z,98608.00
2018-07-04T21:22:49.331Z,98611.00
2018-07-04T21:25:34.796Z,98613.00
2018-07-04T21:28:20.383Z,98613.00
2018-07-04T21:31:05.891Z,98619.00
2018-07-04T21:33:51.523Z,98616.00
2018-07-04T21:36:37.209Z,98620.00
2018-07-04T21:39:22.809Z,98623.00
2018-07-04T21:42:08.421Z,98623.00
2018-07-04T21:44:53.891Z,98630.00
2018-07-04T21:47:39.300Z,98638.00
2018-07-04T21:50:24.768Z,98644.00
2018-07-04T21:53:10.409Z,98645.00
2018-07-04T21:55:56.065Z,98642.00
2018-07-04T21:58:41.571Z,98642.00
2018-07-04T22:01:27.091Z,98645.00
2018-07-04T22:04:13.644Z,98647.00
2018-07-04T22:06:58.871Z,98653.00
2018-07-04T22:09:38.891Z,98649.00
2018-07-04T22:12:24.408Z,98654.00
2018-07-04T22:15:10.019Z,98671.00
2018-07-04T22:17:55.618Z,98674.00
2018-07-04T22:20:41.101Z,98678.00
2018-07-04T22:23:26.789Z,98676.00
2018-07-04T22:26:12.308Z,98679.00
2018-07-04T22:28:57.803Z,98687.00
2018-07-04T22:31:43.331Z,98686.00
2018-07-04T22:34:29.606Z,98687.00
2018-07-04T22:37:15.281Z,98685.00
2018-07-04T22:40:00.728Z,98685.00
2018-07-04T22:42:46.029Z,98691.00
2018-07-04T22:45:31.688Z,98691.00
2018-07-04T22:48:17.416Z,98696.00
2018-07-04T22:51:02.984Z,98699.00
2018-07-04T22:53:48.531Z,98701.00
2018-07-04T22:56:34.948Z,98700.00
2018-07-04T22:59:20.476Z,98701.00
2018-07-04T23:02:06.217Z,98707.00
2018-07-04T23:04:51.701Z,98704.00
2018-07-04T23:07:37.303Z,98704.00
2018-07-04T23:10:22.776Z,98705.00
2018-07-04T23:13:08.383Z,98708.00
2018-07-04T23:15:53.884Z,98714.00
2018-07-04T23:18:39.458Z,98711.00
2018-07-04T23:21:29.948Z,98709.00
2018-07-04T23:24:15.483Z,98709.00
2018-07-04T23:27:00.951Z,98711.00
2018-07-04T23:29:47.229Z,98714.00
2018-07-04T23:32:32.908Z,98711.00
2018-07-04T23:35:18.333Z,98710.00
2018-07-04T23:38:03.919Z,98706.00
2018-07-04T23:40:49.510Z,98710.00
2018-07-04T23:43:34.931Z,98706.00
2018-07-04T23:46:20.426Z,98702.00
2018-07-04T23:49:06.064Z,98705.00
2018-07-04T23:51:51.504Z,98698.00
2018-07-04T23:54:37.050Z,98699.00
2018-07-04T23:57:22.399Z,98698.00
